Time;durP1;ratioP1;P1;durP2;ratioP2;P2;SDS_P1;SDS_P2;PMS_P1;PMS_P2;Temp;Humidity;BMP_temperature;BMP_pressure;BME280_temperature;BME280_humidity;BME280_pressure;Samples;Min_cycle;Max_cycle;Signal;HPM_P1;HPM_P2
2023/04/15 03:00:00;;;;;;;6.72;3.28;;;6.20;99.90;;;;;;5013594;28;20174;-86
2023/04/15 03:02:26;;;;;;;5.90;3.53;;;6.10;99.90;;;;;;5013363;28;20219;-88
2023/04/15 03:04:54;;;;;;;5.22;3.10;;;6.10;99.90;;;;;;5013634;28;20203;-86
2023/04/15 03:07:21;;;;;;;6.70;3.35;;;6.10;99.90;;;;;;5013448;28;20203;-87
2023/04/15 03:09:48;;;;;;;6.45;3.28;;;6.10;99.90;;;;;;5013640;28;20199;-86
2023/04/15 03:12:15;;;;;;;7.50;3.90;;;6.00;99.90;;;;;;5013701;28;20214;-86
2023/04/15 03:14:41;;;;;;;4.97;3.45;;;6.00;99.90;;;;;;5013575;28;20565;-87
2023/04/15 03:17:10;;;;;;;5.85;3.47;;;5.90;99.90;;;;;;5013464;28;20184;-86
2023/04/15 03:19:39;;;;;;;5.88;2.80;;;6.00;99.90;;;;;;5008039;28;20187;-86
2023/04/15 07:17:42;;;;;;;7.07;1.80;;;8.20;86.80;;;;;;5041269;28;20272;-87
2023/04/15 07:20:09;;;;;;;3.95;1.92;;;8.40;84.40;;;;;;5038469;28;20206;-85
2023/04/15 07:25:06;;;;;;;4.28;1.90;;;8.90;79.70;;;;;;5015629;28;20211;-85
2023/04/15 07:27:33;;;;;;;3.38;1.85;;;8.90;77.20;;;;;;5017108;28;20546;-86
2023/04/15 07:43:54;;;;;;;4.80;1.70;;;9.50;62.00;;;;;;5016599;28;20305;-85
2023/04/15 07:46:26;;;;;;;4.38;1.95;;;9.50;60.80;;;;;;5037443;28;20198;-87
2023/04/15 07:48:53;;;;;;;5.90;1.70;;;9.40;61.50;;;;;;5037513;28;20193;-87
2023/04/15 07:51:21;;;;;;;2.78;1.67;;;9.50;66.60;;;;;;5036872;28;20289;-87
2023/04/15 07:57:10;;;;;;;3.33;1.60;;;9.60;60.10;;;;;;5029661;28;20643;-86
2023/04/15 07:59:45;;;;;;;3.92;1.70;;;9.60;60.50;;;;;;5017374;28;20188;-86
2023/04/15 08:02:13;;;;;;;3.72;1.80;;;9.70;58.40;;;;;;5016835;28;20219;-87
2023/04/15 08:04:40;;;;;;;3.95;2.05;;;9.90;59.90;;;;;;5017768;28;20203;-87
2023/04/15 08:07:07;;;;;;;3.42;2.05;;;10.40;57.60;;;;;;5016195;28;20533;-87
2023/04/15 08:09:36;;;;;;;4.35;1.90;;;10.60;49.40;;;;;;5016976;28;20246;-84
2023/04/15 08:12:29;;;;;;;5.35;2.00;;;10.60;44.90;;;;;;5033701;28;20230;-86
2023/04/15 08:15:01;;;;;;;4.32;2.05;;;10.70;44.40;;;;;;5034828;28;20209;-86
2023/04/15 08:20:17;;;;;;;4.30;2.20;;;10.80;44.60;;;;;;4982272;28;20207;-86
2023/04/15 08:26:33;;;;;;;4.20;1.80;;;10.80;41.30;;;;;;5017416;28;20163;-89
2023/04/15 08:29:09;;;;;;;3.05;1.75;;;11.00;40.40;;;;;;4958038;28;20299;-89
2023/04/15 08:41:22;;;;;;;4.30;2.10;;;10.90;38.70;;;;;;4948427;28;20729;-84
2023/04/15 08:43:58;;;;;;;4.28;2.20;;;10.70;40.90;;;;;;4952707;28;20201;-86
2023/04/15 08:46:26;;;;;;;4.70;2.22;;;10.50;39.20;;;;;;4977880;28;20209;-85
2023/04/15 08:48:57;;;;;;;5.65;2.40;;;10.40;41.00;;;;;;5017958;28;20195;-86
2023/04/15 08:51:26;;;;;;;5.15;2.00;;;10.40;46.40;;;;;;5017808;28;20186;-86
2023/04/15 08:54:13;;;;;;;4.72;2.22;;;10.30;42.80;;;;;;5017910;28;20187;-85
2023/04/15 09:00:11;;;;;;;3.22;2.10;;;10.40;47.10;;;;;;5034198;28;20201;-89
2023/04/15 09:02:39;;;;;;;3.83;2.13;;;10.40;47.20;;;;;;5033308;28;20230;-86
2023/04/15 09:05:07;;;;;;;4.93;2.22;;;10.40;47.20;;;;;;5029978;28;20230;-85
2023/04/15 09:07:36;;;;;;;4.05;2.10;;;10.50;47.30;;;;;;5019379;28;20210;-85
2023/04/15 09:10:05;;;;;;;4.32;2.53;;;10.50;47.30;;;;;;5034145;28;20186;-82
2023/04/15 09:12:34;;;;;;;7.60;2.17;;;10.60;47.40;;;;;;5034622;28;20214;-83
2023/04/15 09:15:02;;;;;;;5.68;2.20;;;10.70;47.50;;;;;;5035988;28;20205;-85
2023/04/15 09:17:33;;;;;;;4.63;2.20;;;10.70;42.30;;;;;;5035502;28;20187;-86
2023/04/15 09:20:41;;;;;;;5.30;2.20;;;10.60;42.80;;;;;;5035809;28;20391;-86
2023/04/15 09:35:29;;;;;;;5.38;2.47;;;11.00;39.40;;;;;;5034053;28;20178;-85
2023/04/15 10:01:29;;;;;;;5.57;2.83;;;11.00;41.30;;;;;;5034924;28;20557;-91
2023/04/15 10:07:21;;;;;;;5.45;2.97;;;10.70;41.70;;;;;;5024731;28;20210;-85
2023/04/15 10:10:00;;;;;;;4.47;3.15;;;10.60;42.10;;;;;;4997478;28;20188;-85
2023/04/15 10:12:29;;;;;;;5.90;3.45;;;10.60;43.80;;;;;;4996853;28;20199;-85
2023/04/15 10:15:00;;;;;;;5.05;3.08;;;10.50;42.80;;;;;;5013911;28;20673;-85
2023/04/15 10:17:32;;;;;;;4.47;3.45;;;10.60;43.20;;;;;;5014459;28;20195;-85
2023/04/15 10:20:01;;;;;;;4.85;3.60;;;10.40;41.00;;;;;;5012896;28;20561;-85
2023/04/15 11:41:53;;;;;;;5.18;3.97;;;10.40;44.70;;;;;;5014212;28;20664;-86
2023/04/15 11:44:20;;;;;;;8.23;4.00;;;10.40;47.20;;;;;;5017168;28;20210;-86
2023/04/15 11:46:46;;;;;;;6.43;4.30;;;10.30;48.70;;;;;;5014002;28;20275;-86
2023/04/15 11:49:26;;;;;;;8.45;4.15;;;10.20;52.50;;;;;;5012116;28;20588;-86
2023/04/15 11:51:53;;;;;;;6.55;3.80;;;10.20;55.30;;;;;;5030648;28;20202;-86
2023/04/15 11:54:27;;;;;;;8.18;4.57;;;10.20;50.40;;;;;;5035314;28;20187;-86
2023/04/15 11:57:15;;;;;;;5.28;3.88;;;10.20;52.50;;;;;;5003652;28;20678;-85
2023/04/15 11:59:42;;;;;;;5.68;3.97;;;10.20;55.20;;;;;;5016724;28;20640;-86
2023/04/15 12:02:12;;;;;;;6.03;4.28;;;10.10;56.90;;;;;;5015628;28;20700;-86
2023/04/15 12:04:40;;;;;;;7.25;4.32;;;10.10;58.70;;;;;;5016039;28;20575;-86
2023/04/15 12:07:06;;;;;;;5.95;4.10;;;10.10;57.40;;;;;;5015334;28;20205;-87
2023/04/15 12:09:38;;;;;;;7.60;4.10;;;10.20;59.40;;;;;;5016352;28;20202;-87
2023/04/15 12:12:06;;;;;;;5.40;3.88;;;10.10;58.50;;;;;;5016326;28;20282;-87
2023/04/15 12:15:23;;;;;;;4.95;3.50;;;10.20;58.30;;;;;;5016414;28;20192;-86
2023/04/15 12:29:51;;;;;;;7.18;4.20;;;10.20;49.20;;;;;;4994498;28;20637;-86
2023/04/15 12:32:37;;;;;;;5.03;3.90;;;10.20;46.90;;;;;;5034275;28;20206;-87
2023/04/15 12:38:30;;;;;;;14.43;8.57;;;10.40;47.20;;;;;;5035722;28;20292;-87
2023/04/15 12:40:57;;;;;;;7.85;3.90;;;10.40;47.20;;;;;;5017536;28;20213;-88
2023/04/15 12:43:26;;;;;;;7.65;5.55;;;10.60;47.40;;;;;;5017613;28;20565;-86
2023/04/15 12:45:53;;;;;;;31.98;20.45;;;10.70;46.40;;;;;;5035322;28;20183;-87
2023/04/15 12:48:20;;;;;;;10.05;6.93;;;10.70;47.50;;;;;;5035288;28;20210;-86
2023/04/15 12:50:47;;;;;;;7.63;3.60;;;10.80;47.60;;;;;;5043207;28;20211;-86
2023/04/15 12:53:13;;;;;;;6.03;3.30;;;10.70;39.60;;;;;;5035266;28;20218;-87
2023/04/15 12:55:41;;;;;;;6.97;5.38;;;10.70;40.30;;;;;;5037476;28;20202;-87
2023/04/15 12:58:07;;;;;;;4.35;3.20;;;10.70;38.90;;;;;;5045541;28;20232;-87
2023/04/15 13:00:49;;;;;;;4.93;3.22;;;10.60;35.70;;;;;;5034244;28;20214;-87
2023/04/15 13:06:49;;;;;;;10.88;4.85;;;10.40;36.60;;;;;;5035206;28;20162;-87
2023/04/15 13:12:38;;;;;;;5.55;3.45;;;10.40;35.50;;;;;;5034718;28;20644;-86
2023/04/15 13:15:44;;;;;;;9.40;4.90;;;10.40;34.50;;;;;;5034207;28;20678;-85
2023/04/15 13:18:12;;;;;;;5.28;2.63;;;10.40;34.10;;;;;;5024348;28;20222;-89
2023/04/15 13:23:20;;;;;;;2.90;2.60;;;10.30;32.60;;;;;;5119010;23;20291;-88
2023/04/15 13:25:47;;;;;;;9.80;4.65;;;10.30;31.10;;;;;;5034621;28;20221;-87
2023/04/15 13:28:14;;;;;;;5.75;2.67;;;10.10;31.40;;;;;;5034905;28;20191;-86
2023/04/15 13:31:03;;;;;;;4.50;3.30;;;10.20;32.20;;;;;;5034557;28;20616;-86
2023/04/15 13:37:14;;;;;;;5.68;3.13;;;10.30;34.70;;;;;;5074240;28;20524;-85
2023/04/15 13:43:10;;;;;;;6.28;3.22;;;10.20;36.70;;;;;;5053948;28;20244;-86
2023/04/15 13:49:13;;;;;;;6.40;2.90;;;10.10;34.30;;;;;;5034191;28;20279;-86
2023/04/15 13:51:41;;;;;;;7.32;3.92;;;10.20;35.30;;;;;;5045121;28;20198;-86
2023/04/15 13:54:09;;;;;;;5.40;3.33;;;10.20;35.50;;;;;;5053891;28;20193;-86
2023/04/15 13:56:36;;;;;;;5.35;3.83;;;10.00;37.30;;;;;;5055268;28;20198;-86
2023/04/15 13:59:05;;;;;;;4.20;3.20;;;9.90;43.30;;;;;;5053746;28;20208;-86
2023/04/15 14:01:32;;;;;;;5.47;3.67;;;9.90;46.70;;;;;;5048551;28;20605;-87
2023/04/15 14:03:59;;;;;;;4.57;3.60;;;9.90;47.70;;;;;;5048601;28;20213;-87
2023/04/15 14:06:26;;;;;;;7.47;4.20;;;9.80;48.50;;;;;;5053560;28;20202;-87
2023/04/15 14:09:15;;;;;;;6.80;3.60;;;9.70;50.20;;;;;;5039975;28;20198;-87
2023/04/15 14:11:42;;;;;;;5.65;3.60;;;9.70;49.70;;;;;;5046968;28;20198;-86
2023/04/15 14:14:09;;;;;;;5.60;3.63;;;9.80;50.90;;;;;;5053944;28;20285;-86
2023/04/15 14:16:36;;;;;;;4.85;3.10;;;9.80;48.20;;;;;;5055991;28;20197;-87
2023/04/15 14:19:03;;;;;;;6.88;2.83;;;9.70;46.50;;;;;;5045463;28;20209;-88
2023/04/15 14:21:33;;;;;;;3.67;3.03;;;9.70;48.10;;;;;;5052775;28;20291;-85
2023/04/15 14:24:00;;;;;;;3.85;3.15;;;9.70;43.90;;;;;;5053763;28;20226;-87
2023/04/15 14:26:31;;;;;;;5.57;3.22;;;9.80;42.80;;;;;;5053988;28;20194;-88
2023/04/15 14:28:59;;;;;;;4.80;2.70;;;9.80;40.40;;;;;;5054523;28;20194;-89
2023/04/15 14:31:26;;;;;;;4.68;2.92;;;9.90;40.30;;;;;;5053642;28;20681;-86
2023/04/15 14:33:53;;;;;;;5.85;2.80;;;10.00;35.00;;;;;;5020320;28;20205;-87
2023/04/15 14:36:21;;;;;;;5.45;2.80;;;10.00;35.90;;;;;;5035300;28;20197;-87
2023/04/15 14:38:48;;;;;;;4.43;2.67;;;10.00;35.40;;;;;;5036247;28;20193;-87
2023/04/15 14:41:16;;;;;;;5.30;3.15;;;9.90;38.60;;;;;;5053170;28;20661;-87
2023/04/15 14:43:44;;;;;;;6.03;2.97;;;9.90;38.80;;;;;;5037597;28;20705;-87
2023/04/15 14:46:13;;;;;;;4.05;3.00;;;9.90;38.90;;;;;;5053912;28;20197;-87
2023/04/15 14:48:40;;;;;;;3.33;3.03;;;9.80;39.40;;;;;;5038890;28;20277;-86
2023/04/15 14:54:30;;;;;;;3.03;2.72;;;9.90;40.00;;;;;;5053786;28;20185;-86
2023/04/15 14:56:57;;;;;;;4.18;2.83;;;9.90;39.00;;;;;;5053279;28;20565;-85
2023/04/15 14:59:25;;;;;;;4.53;3.28;;;9.80;40.20;;;;;;5035745;28;20206;-87
2023/04/15 15:01:53;;;;;;;5.60;2.92;;;9.80;40.90;;;;;;5053559;28;20201;-86
2023/04/15 15:04:20;;;;;;;3.67;2.97;;;9.80;43.80;;;;;;5053135;28;20244;-86
2023/04/15 15:06:47;;;;;;;5.93;3.13;;;9.80;42.70;;;;;;5054561;28;20236;-86
2023/04/15 15:09:13;;;;;;;7.57;3.67;;;9.80;42.90;;;;;;5035539;28;20593;-87
2023/04/15 15:11:40;;;;;;;5.63;3.05;;;9.70;43.80;;;;;;5045905;28;20190;-86
2023/04/15 15:14:07;;;;;;;4.45;3.22;;;9.70;48.10;;;;;;5051111;28;20209;-91
2023/04/15 15:16:37;;;;;;;5.13;3.35;;;9.70;48.10;;;;;;5035350;28;20198;-87
2023/04/15 15:19:04;;;;;;;4.68;3.60;;;9.60;52.00;;;;;;5052511;28;20659;-87
2023/04/15 15:21:31;;;;;;;4.40;3.80;;;9.60;59.80;;;;;;5052574;28;20205;-87
2023/04/15 15:23:57;;;;;;;4.82;3.60;;;9.50;65.50;;;;;;5054984;28;20230;-85
2023/04/15 15:26:26;;;;;;;5.72;3.63;;;9.40;70.60;;;;;;5054403;28;20194;-85
2023/04/15 15:28:53;;;;;;;6.80;4.13;;;9.40;70.80;;;;;;5056354;28;20198;-85
2023/04/15 15:32:14;;;;;;;4.93;3.78;;;9.30;75.60;;;;;;5038910;28;20191;-86
2023/04/15 15:34:42;;;;;;;4.88;3.35;;;9.10;79.00;;;;;;5030722;28;20217;-86
2023/04/15 15:37:09;;;;;;;3.65;3.20;;;9.00;84.40;;;;;;5056822;28;20204;-85
2023/04/15 15:39:36;;;;;;;5.20;3.35;;;8.90;84.70;;;;;;5058051;28;20266;-86
2023/04/15 15:42:03;;;;;;;3.85;3.45;;;8.80;85.90;;;;;;5058800;28;20198;-86
2023/04/15 15:44:29;;;;;;;3.83;3.30;;;8.60;87.70;;;;;;5050673;28;20206;-85
2023/04/15 15:46:56;;;;;;;4.35;3.45;;;8.40;90.30;;;;;;5064177;28;20206;-86
2023/04/15 15:49:24;;;;;;;4.63;3.47;;;8.40;90.80;;;;;;5065461;28;20209;-86
2023/04/15 15:51:52;;;;;;;5.07;3.60;;;8.40;91.10;;;;;;5035899;28;20201;-86
2023/04/15 15:54:19;;;;;;;3.97;3.40;;;8.40;91.60;;;;;;5049505;28;20202;-87
2023/04/15 15:56:46;;;;;;;5.03;3.78;;;8.30;91.70;;;;;;5030950;28;20255;-84
2023/04/15 15:59:13;;;;;;;4.78;3.40;;;8.30;92.00;;;;;;5057889;28;20205;-88
2023/04/15 16:15:46;;;;;;;4.13;3.65;;;8.30;92.20;;;;;;5055278;28;20181;-85
2023/04/15 16:29:21;;;;;;;4.80;3.58;;;8.10;93.00;;;;;;5071642;22;20244;-83
2023/04/15 16:31:49;;;;;;;4.43;3.72;;;8.10;93.00;;;;;;5035766;28;20213;-87
2023/04/15 16:34:17;;;;;;;5.00;3.45;;;8.10;93.20;;;;;;5036593;28;20191;-88
2023/04/15 16:37:04;;;;;;;4.00;3.47;;;8.10;93.10;;;;;;5037047;28;20195;-84
2023/04/15 16:43:33;;;;;;;4.70;3.30;;;8.20;92.10;;;;;;5036165;28;20520;-88
2023/04/15 16:52:50;;;;;;;4.60;3.25;;;8.30;91.20;;;;;;5035771;28;20225;-85
2023/04/15 16:55:17;;;;;;;3.78;3.15;;;8.20;91.60;;;;;;5031987;28;20206;-86
2023/04/15 16:57:43;;;;;;;3.92;2.85;;;8.10;92.10;;;;;;5022218;28;20197;-87
2023/04/15 17:00:45;;;;;;;3.95;2.90;;;8.10;90.90;;;;;;5035293;28;20193;-86
2023/04/15 17:03:23;;;;;;;3.67;2.60;;;8.00;91.30;;;;;;5031256;28;20201;-86
2023/04/15 17:05:50;;;;;;;4.68;3.08;;;8.00;91.10;;;;;;5033537;28;20202;-86
2023/04/15 17:08:18;;;;;;;3.75;2.63;;;7.80;91.20;;;;;;5025571;28;20207;-85
2023/04/15 17:10:45;;;;;;;6.72;3.92;;;7.90;91.80;;;;;;5023523;28;20210;-84
2023/04/15 17:13:12;;;;;;;4.03;2.80;;;7.90;91.70;;;;;;5032048;28;20199;-84
2023/04/15 17:16:19;;;;;;;2.95;2.63;;;7.80;91.20;;;;;;5035784;28;20611;-85
2023/04/15 17:35:10;;;;;;;4.20;2.97;;;7.50;93.40;;;;;;5302589;22;20569;-85
2023/04/15 17:37:53;;;;;;;4.57;3.38;;;7.50;94.10;;;;;;5035366;28;20186;-86
2023/04/15 17:40:42;;;;;;;3.55;2.60;;;7.50;94.40;;;;;;5034241;28;20198;-86
2023/04/15 17:46:31;;;;;;;4.13;2.53;;;7.30;95.10;;;;;;5033488;28;20178;-85
2023/04/15 17:48:58;;;;;;;6.20;3.20;;;7.30;95.60;;;;;;5019759;28;20563;-85
2023/04/15 17:51:26;;;;;;;4.38;2.80;;;7.30;95.50;;;;;;5030576;28;20198;-83
2023/04/15 17:53:53;;;;;;;4.00;2.83;;;7.40;96.10;;;;;;5029733;28;20249;-83
2023/04/15 17:56:20;;;;;;;5.72;3.10;;;7.30;96.00;;;;;;5033968;28;20221;-88
2023/04/15 17:58:47;;;;;;;4.45;3.22;;;7.20;96.00;;;;;;5034466;28;20206;-83
2023/04/15 18:01:14;;;;;;;3.58;2.75;;;7.20;96.40;;;;;;5043792;28;20662;-83
2023/04/15 18:03:41;;;;;;;4.55;3.22;;;7.30;96.20;;;;;;5030479;28;20222;-83
2023/04/15 18:06:08;;;;;;;4.85;3.35;;;7.20;96.50;;;;;;5032796;28;20202;-83
2023/04/15 18:08:37;;;;;;;7.38;3.00;;;7.20;97.30;;;;;;5033903;28;20210;-84
2023/04/15 18:11:04;;;;;;;4.10;3.08;;;7.20;96.20;;;;;;5034085;28;20202;-84
2023/04/15 18:13:30;;;;;;;3.45;2.97;;;7.10;96.90;;;;;;5033847;28;20198;-84
2023/04/15 18:19:44;;;;;;;5.18;2.97;;;7.20;96.90;;;;;;5033728;28;20213;-89
2023/04/15 19:41:00;;;;;;;5.97;3.30;;;7.20;98.00;;;;;;5036651;28;20308;-85
2023/04/15 19:57:54;;;;;;;4.18;3.50;;;7.20;98.30;;;;;;5017355;28;20610;-84
2023/04/15 20:07:41;;;;;;;3.90;3.40;;;7.10;98.10;;;;;;5016911;28;20184;-84
2023/04/15 20:21:11;;;;;;;5.30;3.28;;;7.10;98.30;;;;;;5016167;28;20249;-84
2023/04/15 20:26:08;;;;;;;3.70;3.40;;;7.10;98.30;;;;;;5014563;28;20246;-84
2023/04/15 20:28:35;;;;;;;5.68;3.13;;;7.00;98.60;;;;;;5016249;28;20190;-84
2023/04/15 20:37:57;;;;;;;4.40;3.17;;;7.10;99.00;;;;;;5016258;28;20183;-90
